Time;durP1;ratioP1;P1;durP2;ratioP2;P2;SDS_P1;SDS_P2;PMS_P1;PMS_P2;Temp;Humidity;BMP_temperature;BMP_pressure;BME280_temperature;BME280_humidity;BME280_pressure;Samples;Min_cycle;Max_cycle;Signal;HPM_P1;HPM_P2
2023/06/21 00:00:12;;;;;;;17.63;10.13;;;18.80;94.60;;;;;;5018989;28;20076;-74
2023/06/21 00:02:39;;;;;;;18.25;10.38;;;18.70;94.50;;;;;;5017432;28;20140;-73
2023/06/21 00:05:06;;;;;;;13.65;9.15;;;18.70;94.50;;;;;;5014397;28;20045;-74
2023/06/21 00:07:32;;;;;;;15.93;9.75;;;18.60;95.00;;;;;;5016623;28;20022;-74
2023/06/21 00:09:58;;;;;;;13.02;9.23;;;18.60;95.10;;;;;;5017807;28;20029;-74
2023/06/21 00:12:25;;;;;;;17.42;10.02;;;18.60;95.00;;;;;;5017223;28;20327;-74
2023/06/21 00:14:51;;;;;;;13.10;9.23;;;18.60;94.90;;;;;;5018027;28;20030;-74
2023/06/21 00:17:17;;;;;;;14.77;9.60;;;18.50;94.90;;;;;;5016294;28;20041;-74
2023/06/21 00:19:43;;;;;;;15.00;9.10;;;18.50;95.20;;;;;;5018516;28;20311;-74
2023/06/21 00:22:09;;;;;;;13.57;8.90;;;18.50;95.30;;;;;;5016689;28;20312;-74
2023/06/21 00:24:35;;;;;;;17.42;9.35;;;18.50;95.30;;;;;;5017961;28;20017;-74
2023/06/21 00:27:00;;;;;;;16.63;10.00;;;18.50;95.20;;;;;;5017189;28;20026;-74
2023/06/21 00:29:26;;;;;;;15.13;9.35;;;18.50;94.80;;;;;;5016918;28;20144;-74
2023/06/21 00:31:51;;;;;;;15.55;8.45;;;18.40;94.50;;;;;;5015681;28;20045;-74
2023/06/21 00:34:17;;;;;;;16.13;9.65;;;18.30;94.40;;;;;;5017176;28;20112;-74
2023/06/21 00:36:42;;;;;;;16.45;9.45;;;18.30;94.70;;;;;;5016824;28;20026;-74
2023/06/21 00:39:09;;;;;;;17.15;9.75;;;18.30;94.80;;;;;;5017244;28;20041;-74
2023/06/21 00:41:35;;;;;;;17.33;9.88;;;18.30;95.00;;;;;;4999946;28;20045;-74
2023/06/21 00:44:01;;;;;;;13.80;9.30;;;18.30;95.10;;;;;;5016505;28;20026;-74
2023/06/21 00:46:26;;;;;;;17.23;9.75;;;18.30;95.20;;;;;;5015731;28;20095;-74
2023/06/21 00:48:52;;;;;;;12.95;9.02;;;18.30;95.30;;;;;;5000795;28;20140;-74
2023/06/21 00:51:18;;;;;;;12.60;8.85;;;18.30;95.10;;;;;;5017523;28;20026;-73
2023/06/21 00:53:45;;;;;;;12.60;8.93;;;18.20;94.90;;;;;;5017299;28;20057;-73
2023/06/21 00:56:16;;;;;;;12.90;9.35;;;18.20;94.80;;;;;;5017117;28;20045;-72
2023/06/21 00:58:43;;;;;;;15.45;9.23;;;18.10;94.40;;;;;;5015805;28;20021;-73
2023/06/21 01:01:08;;;;;;;18.55;9.35;;;18.10;94.20;;;;;;5018004;28;20022;-72
2023/06/21 01:03:36;;;;;;;17.63;8.80;;;18.00;94.10;;;;;;5019619;28;20037;-73
2023/06/21 01:06:14;;;;;;;16.20;9.30;;;18.00;93.90;;;;;;5013762;28;20088;-72
2023/06/21 01:08:54;;;;;;;15.85;9.88;;;18.00;94.30;;;;;;5016436;28;20080;-73
2023/06/21 01:11:25;;;;;;;15.10;10.27;;;18.00;94.60;;;;;;5017162;28;20124;-74
2023/06/21 01:14:05;;;;;;;12.98;9.50;;;18.00;94.40;;;;;;5017602;28;20029;-74
2023/06/21 01:16:39;;;;;;;15.00;9.32;;;17.90;94.40;;;;;;5016898;28;20014;-74
2023/06/21 01:19:07;;;;;;;21.50;9.95;;;17.90;93.90;;;;;;5015472;28;20030;-74
2023/06/21 01:21:34;;;;;;;15.52;9.43;;;17.90;93.90;;;;;;5013515;28;20117;-74
2023/06/21 01:24:14;;;;;;;13.90;9.50;;;17.80;93.70;;;;;;5017249;28;20059;-74
2023/06/21 01:26:58;;;;;;;13.95;9.23;;;17.70;93.40;;;;;;5016493;28;20022;-74
2023/06/21 01:29:30;;;;;;;15.82;9.45;;;17.70;93.00;;;;;;5015064;28;20041;-74
2023/06/21 01:31:57;;;;;;;16.70;10.27;;;17.70;92.60;;;;;;4997540;28;20069;-74
2023/06/21 01:34:24;;;;;;;17.33;11.02;;;17.60;92.50;;;;;;5017169;28;20037;-74
2023/06/21 01:36:50;;;;;;;15.77;9.85;;;17.60;92.60;;;;;;5015983;28;20105;-74
2023/06/21 01:39:16;;;;;;;15.68;9.32;;;17.70;92.80;;;;;;5017053;28;20311;-74
2023/06/21 01:41:42;;;;;;;15.82;10.27;;;17.70;93.10;;;;;;5016668;28;20046;-74
2023/06/21 01:44:09;;;;;;;15.75;9.63;;;17.70;93.30;;;;;;5014651;28;20435;-74
2023/06/21 01:46:36;;;;;;;16.20;9.95;;;17.70;93.00;;;;;;5014656;28;20026;-74
2023/06/21 01:49:06;;;;;;;14.52;9.60;;;17.70;92.90;;;;;;4998645;28;20415;-74
2023/06/21 01:51:35;;;;;;;13.68;9.82;;;17.70;92.30;;;;;;4998268;28;20033;-74
2023/06/21 01:54:01;;;;;;;14.35;9.65;;;17.60;91.70;;;;;;5015684;28;20121;-74
2023/06/21 01:56:27;;;;;;;14.35;9.80;;;17.60;91.40;;;;;;5016577;28;20044;-74
2023/06/21 01:58:53;;;;;;;18.13;10.40;;;17.60;91.10;;;;;;5016076;28;20100;-74
2023/06/21 02:01:19;;;;;;;15.18;9.90;;;17.60;90.80;;;;;;5025704;28;20067;-73
2023/06/21 02:03:49;;;;;;;16.55;11.02;;;17.60;90.80;;;;;;5029102;28;20029;-74
2023/06/21 02:06:16;;;;;;;15.70;10.88;;;17.60;90.70;;;;;;5015997;28;20037;-74
2023/06/21 02:08:42;;;;;;;15.88;10.55;;;17.50;90.30;;;;;;5011255;28;20045;-74
2023/06/21 02:11:08;;;;;;;14.70;10.30;;;17.50;90.20;;;;;;4996843;28;20049;-74
2023/06/21 02:13:34;;;;;;;16.13;10.45;;;17.50;89.80;;;;;;5004908;28;20022;-74
2023/06/21 02:16:00;;;;;;;17.42;10.65;;;17.50;89.50;;;;;;5016516;28;20036;-74
2023/06/21 02:18:26;;;;;;;19.10;10.30;;;17.60;89.30;;;;;;4998114;28;20052;-74
2023/06/21 02:20:52;;;;;;;15.57;9.88;;;17.60;89.60;;;;;;5015643;28;20105;-74
2023/06/21 02:23:18;;;;;;;13.45;9.32;;;17.70;90.20;;;;;;5016370;28;20304;-74
2023/06/21 02:25:43;;;;;;;17.08;10.43;;;17.70;91.00;;;;;;5014652;28;20033;-74
2023/06/21 02:28:09;;;;;;;16.55;10.55;;;17.70;90.90;;;;;;5014872;28;20038;-74
2023/06/21 02:30:34;;;;;;;18.08;10.43;;;17.70;90.40;;;;;;5014369;28;20041;-74
2023/06/21 02:33:00;;;;;;;16.83;10.65;;;17.80;90.70;;;;;;5014589;28;20033;-74
2023/06/21 02:35:26;;;;;;;18.35;11.05;;;17.80;91.00;;;;;;5014956;28;20041;-74
2023/06/21 02:37:51;;;;;;;20.15;11.27;;;17.80;91.50;;;;;;5013083;28;20033;-74
2023/06/21 02:40:17;;;;;;;18.30;10.60;;;17.70;91.30;;;;;;5030616;28;20029;-73
2023/06/21 02:42:43;;;;;;;18.00;10.60;;;17.70;91.00;;;;;;5017120;28;20149;-74
2023/06/21 02:45:09;;;;;;;16.52;10.38;;;17.70;91.10;;;;;;5014127;28;20112;-74
2023/06/21 02:47:35;;;;;;;19.25;11.38;;;17.70;90.60;;;;;;5015227;28;20095;-74
2023/06/21 02:50:02;;;;;;;16.23;9.93;;;17.60;90.60;;;;;;5014932;28;20428;-74
2023/06/21 02:52:28;;;;;;;16.55;10.75;;;17.50;90.60;;;;;;5013034;28;20044;-74
2023/06/21 02:54:53;;;;;;;16.60;11.30;;;17.40;90.40;;;;;;5015554;28;20096;-74
2023/06/21 02:57:19;;;;;;;14.57;10.70;;;17.40;89.80;;;;;;5015152;28;20022;-74
2023/06/21 02:59:45;;;;;;;14.32;10.23;;;17.30;88.50;;;;;;5014516;28;20057;-74
2023/06/21 03:02:11;;;;;;;20.75;10.75;;;17.30;87.80;;;;;;5014292;28;20045;-74
2023/06/21 03:04:37;;;;;;;17.58;10.65;;;17.30;87.20;;;;;;5014340;28;20033;-74
2023/06/21 03:07:05;;;;;;;14.43;10.43;;;17.30;87.30;;;;;;5013568;28;20030;-74
2023/06/21 03:09:31;;;;;;;19.20;10.90;;;17.30;86.90;;;;;;5014228;28;20113;-74
2023/06/21 03:11:57;;;;;;;20.33;10.90;;;17.30;86.70;;;;;;5015140;28;20327;-74
2023/06/21 03:14:23;;;;;;;14.48;10.18;;;17.40;86.70;;;;;;5013258;28;20037;-73
2023/06/21 03:16:49;;;;;;;18.50;10.88;;;17.50;87.30;;;;;;5015027;28;20029;-74
2023/06/21 03:19:15;;;;;;;17.25;10.45;;;17.60;88.10;;;;;;4996788;28;20490;-74
2023/06/21 03:21:40;;;;;;;14.68;10.40;;;17.70;88.30;;;;;;4995567;28;20113;-74
2023/06/21 03:24:07;;;;;;;12.48;9.88;;;17.80;88.90;;;;;;4996824;28;20030;-73
2023/06/21 03:26:35;;;;;;;21.48;11.38;;;17.90;89.30;;;;;;5014918;28;20327;-74
2023/06/21 03:29:02;;;;;;;15.07;10.05;;;18.00;89.90;;;;;;5014347;28;20026;-75
2023/06/21 03:31:28;;;;;;;13.15;9.27;;;18.00;90.10;;;;;;4995406;28;20049;-75
2023/06/21 03:33:54;;;;;;;14.65;9.60;;;18.10;90.10;;;;;;4996965;28;20030;-75
2023/06/21 03:36:19;;;;;;;15.23;9.93;;;18.10;90.50;;;;;;5014461;28;20030;-74
2023/06/21 03:38:45;;;;;;;14.68;9.77;;;18.20;91.20;;;;;;5013379;28;20463;-75
2023/06/21 03:41:11;;;;;;;14.77;10.38;;;18.20;91.90;;;;;;5013779;28;20056;-74
2023/06/21 03:43:36;;;;;;;16.58;10.07;;;18.30;92.20;;;;;;5013690;28;20030;-72
2023/06/21 03:46:02;;;;;;;15.40;9.55;;;18.30;93.20;;;;;;5014612;28;20025;-73
2023/06/21 03:48:28;;;;;;;18.67;10.00;;;18.40;94.40;;;;;;5012682;28;20038;-74
2023/06/21 03:50:53;;;;;;;15.45;9.88;;;18.50;94.30;;;;;;5014095;28;20173;-72
2023/06/21 03:53:19;;;;;;;13.35;8.60;;;18.60;94.20;;;;;;5012967;28;20088;-72
2023/06/21 03:55:44;;;;;;;14.32;9.93;;;18.70;94.20;;;;;;5014751;28;20045;-72
2023/06/21 03:58:12;;;;;;;18.77;9.90;;;18.80;94.30;;;;;;5014832;28;20051;-73
2023/06/21 04:00:37;;;;;;;12.10;9.32;;;18.70;94.10;;;;;;5014012;28;20062;-72
2023/06/21 04:03:03;;;;;;;17.63;11.10;;;18.70;94.10;;;;;;4993468;28;20073;-74
2023/06/21 04:05:32;;;;;;;15.27;10.90;;;18.70;94.10;;;;;;5012866;28;20057;-73
2023/06/21 04:07:58;;;;;;;12.80;9.38;;;18.70;94.50;;;;;;5015647;28;20117;-74
2023/06/21 04:10:27;;;;;;;19.25;10.35;;;18.60;94.40;;;;;;4998509;28;20092;-74
2023/06/21 04:12:55;;;;;;;14.90;10.15;;;18.70;94.30;;;;;;5017103;28;20251;-74
2023/06/21 04:15:21;;;;;;;16.20;10.00;;;18.70;95.10;;;;;;5017155;28;20022;-74
2023/06/21 04:17:49;;;;;;;12.65;10.02;;;18.80;94.80;;;;;;5017069;28;20076;-74
2023/06/21 04:20:15;;;;;;;15.52;9.73;;;18.80;94.80;;;;;;5013422;28;20113;-74
2023/06/21 04:22:41;;;;;;;14.57;9.52;;;18.80;94.60;;;;;;5011607;28;20112;-74
2023/06/21 04:25:11;;;;;;;15.75;9.90;;;18.80;94.60;;;;;;5017052;28;20057;-74
2023/06/21 04:27:39;;;;;;;16.98;10.48;;;18.80;94.40;;;;;;5017814;28;20446;-74
2023/06/21 04:30:09;;;;;;;16.83;10.52;;;18.80;94.00;;;;;;5017024;28;20037;-74
2023/06/21 04:32:34;;;;;;;14.23;9.90;;;18.80;94.50;;;;;;4999218;28;20033;-74
2023/06/21 04:35:03;;;;;;;13.93;9.65;;;18.80;94.00;;;;;;5016389;28;20305;-74
2023/06/21 04:37:29;;;;;;;16.17;9.70;;;18.90;93.70;;;;;;5012500;28;20026;-74
2023/06/21 04:39:55;;;;;;;13.90;10.68;;;18.90;93.60;;;;;;5016347;28;20037;-74
2023/06/21 04:42:21;;;;;;;15.50;10.30;;;19.00;94.10;;;;;;5015424;28;20065;-74
2023/06/21 04:44:54;;;;;;;13.70;9.68;;;18.90;94.10;;;;;;5016107;28;20022;-74
2023/06/21 04:47:20;;;;;;;14.60;10.55;;;18.90;93.90;;;;;;5013761;28;20087;-74
2023/06/21 04:49:45;;;;;;;15.05;9.77;;;19.00;94.30;;;;;;5012675;28;20108;-73
2023/06/21 04:52:12;;;;;;;19.73;10.25;;;19.10;94.50;;;;;;4996813;28;20438;-74
2023/06/21 04:54:38;;;;;;;14.25;9.32;;;19.10;94.90;;;;;;5012427;28;20026;-74
2023/06/21 04:57:04;;;;;;;13.73;9.43;;;19.30;95.00;;;;;;4998464;28;20149;-74
2023/06/21 04:59:30;;;;;;;17.13;9.70;;;19.40;95.20;;;;;;5010420;28;20053;-74
2023/06/21 05:01:59;;;;;;;17.23;10.02;;;19.50;95.50;;;;;;5016548;28;20461;-74
2023/06/21 05:04:25;;;;;;;13.23;9.57;;;19.60;95.50;;;;;;5012841;28;20186;-74
2023/06/21 05:06:50;;;;;;;13.20;8.95;;;19.70;95.70;;;;;;5015718;28;20124;-74
2023/06/21 05:09:16;;;;;;;15.10;10.55;;;19.80;96.10;;;;;;5016779;28;20033;-74
2023/06/21 05:11:42;;;;;;;11.93;8.98;;;19.90;96.40;;;;;;5014534;28;20431;-74
2023/06/21 05:14:07;;;;;;;14.93;9.27;;;20.00;96.20;;;;;;5017640;28;20026;-74
2023/06/21 05:16:33;;;;;;;13.85;9.27;;;20.20;96.40;;;;;;5028452;28;20032;-74
2023/06/21 05:18:58;;;;;;;16.83;9.93;;;20.40;96.60;;;;;;5015969;28;20120;-74
2023/06/21 05:21:24;;;;;;;15.93;9.90;;;20.50;96.70;;;;;;5011937;28;20022;-74
2023/06/21 05:23:50;;;;;;;13.48;8.73;;;20.70;96.40;;;;;;5015767;28;20060;-74
2023/06/21 05:26:15;;;;;;;18.98;9.32;;;20.90;96.50;;;;;;5017569;28;20324;-74
2023/06/21 05:28:41;;;;;;;13.48;9.25;;;21.20;96.20;;;;;;5017455;28;20311;-74
2023/06/21 05:31:06;;;;;;;13.77;9.15;;;21.30;96.00;;;;;;5017217;28;20057;-74
2023/06/21 05:33:32;;;;;;;13.70;8.68;;;21.50;95.60;;;;;;5011345;28;20254;-74
2023/06/21 05:35:58;;;;;;;14.23;8.25;;;21.70;95.50;;;;;;5016273;28;20316;-74
2023/06/21 05:38:23;;;;;;;11.65;8.60;;;22.00;95.10;;;;;;5014065;28;20033;-74
2023/06/21 05:40:49;;;;;;;12.43;7.78;;;22.20;94.80;;;;;;4997706;28;20034;-75
2023/06/21 05:43:14;;;;;;;14.80;8.50;;;22.40;94.40;;;;;;5013434;28;20029;-74
2023/06/21 05:45:40;;;;;;;13.82;7.90;;;22.60;94.40;;;;;;5015282;28;20026;-75
2023/06/21 05:48:05;;;;;;;11.57;7.15;;;22.70;93.10;;;;;;5016770;28;20030;-75
2023/06/21 05:50:31;;;;;;;15.02;7.93;;;22.70;93.20;;;;;;4999623;28;20117;-74
2023/06/21 05:52:58;;;;;;;13.80;8.80;;;22.70;92.80;;;;;;5015339;28;20030;-74
2023/06/21 05:55:24;;;;;;;15.57;8.60;;;22.70;92.60;;;;;;5016521;28;20034;-74
2023/06/21 05:57:49;;;;;;;16.10;8.88;;;22.60;92.20;;;;;;5018697;28;20022;-74
2023/06/21 06:00:16;;;;;;;14.23;8.90;;;22.50;93.20;;;;;;5015261;28;20041;-74
2023/06/21 06:02:42;;;;;;;17.17;10.20;;;22.40;93.30;;;;;;5016324;28;20093;-79
2023/06/21 06:05:08;;;;;;;17.40;11.10;;;22.50;92.90;;;;;;5016539;28;20064;-79
2023/06/21 06:07:34;;;;;;;19.67;11.15;;;22.40;93.90;;;;;;5014432;28;20422;-75
2023/06/21 06:09:59;;;;;;;16.05;10.30;;;22.10;94.40;;;;;;5015729;28;20117;-74
2023/06/21 06:12:25;;;;;;;17.23;9.30;;;22.10;95.00;;;;;;5016446;28;20022;-74
2023/06/21 06:14:51;;;;;;;15.43;9.80;;;22.30;95.00;;;;;;5016434;28;20354;-74
2023/06/21 06:17:16;;;;;;;14.30;9.65;;;22.40;94.30;;;;;;5013790;28;20471;-74
2023/06/21 06:19:42;;;;;;;14.55;9.52;;;22.70;94.80;;;;;;5016151;28;20026;-74
2023/06/21 06:22:08;;;;;;;16.38;9.68;;;23.00;93.70;;;;;;5013850;28;20038;-73
2023/06/21 06:24:33;;;;;;;13.65;8.85;;;23.00;91.90;;;;;;5014916;28;20113;-74
2023/06/21 06:26:59;;;;;;;13.13;8.68;;;23.10;92.30;;;;;;5010459;28;20033;-73
2023/06/21 06:29:25;;;;;;;12.52;8.68;;;23.10;91.40;;;;;;4998332;28;20326;-74
2023/06/21 06:31:51;;;;;;;12.95;9.57;;;23.30;91.40;;;;;;5012644;28;20413;-73
2023/06/21 06:34:17;;;;;;;14.55;8.52;;;23.60;89.70;;;;;;5014620;28;20033;-73
2023/06/21 06:36:43;;;;;;;13.30;8.55;;;23.60;89.90;;;;;;5010336;28;20045;-72
2023/06/21 06:39:09;;;;;;;14.68;8.77;;;23.80;88.30;;;;;;5014131;28;20037;-73
2023/06/21 06:41:35;;;;;;;14.35;8.48;;;23.90;88.40;;;;;;5013629;28;20041;-73
2023/06/21 06:44:00;;;;;;;15.05;8.77;;;24.00;88.80;;;;;;5013885;28;20441;-73
2023/06/21 06:46:26;;;;;;;16.13;8.55;;;24.20;87.00;;;;;;5010429;28;20119;-72
2023/06/21 06:48:51;;;;;;;13.60;7.82;;;24.10;85.50;;;;;;5009090;28;20505;-72
2023/06/21 06:51:17;;;;;;;13.15;7.75;;;24.20;86.00;;;;;;5012630;28;20096;-72
2023/06/21 06:53:42;;;;;;;12.95;8.10;;;24.20;85.40;;;;;;5012916;28;20084;-71
2023/06/21 06:56:08;;;;;;;12.55;7.88;;;24.20;85.80;;;;;;5013876;28;20462;-74
2023/06/21 06:58:36;;;;;;;15.65;7.65;;;24.30;85.90;;;;;;5013873;28;20418;-74
2023/06/21 07:01:03;;;;;;;10.95;7.50;;;24.40;85.20;;;;;;5011477;28;20326;-73
2023/06/21 07:03:29;;;;;;;11.95;7.20;;;24.50;84.20;;;;;;5011639;28;20046;-74
2023/06/21 07:05:55;;;;;;;12.05;7.50;;;24.60;83.80;;;;;;5014745;28;20064;-74
2023/06/21 07:08:23;;;;;;;11.23;7.55;;;24.80;84.20;;;;;;5011780;28;20053;-74
2023/06/21 07:10:48;;;;;;;12.38;7.00;;;25.00;82.90;;;;;;5010691;28;20068;-74
2023/06/21 07:13:14;;;;;;;9.35;6.90;;;25.20;82.90;;;;;;5010631;28;20046;-74
2023/06/21 07:15:40;;;;;;;11.15;7.10;;;25.50;81.90;;;;;;5009534;28;20018;-74
2023/06/21 07:18:05;;;;;;;13.90;6.70;;;25.70;81.60;;;;;;5011661;28;20022;-74
2023/06/21 07:20:31;;;;;;;14.27;7.57;;;25.90;80.70;;;;;;5008030;28;20415;-74
2023/06/21 07:22:57;;;;;;;12.63;7.57;;;26.10;80.60;;;;;;5011106;28;20057;-73
2023/06/21 07:25:23;;;;;;;14.20;7.57;;;26.60;79.80;;;;;;5012701;28;20042;-74
2023/06/21 07:27:49;;;;;;;9.48;6.80;;;27.10;77.20;;;;;;5012211;28;20042;-75
2023/06/21 07:30:16;;;;;;;10.73;6.53;;;27.40;76.90;;;;;;5008615;28;20058;-74
2023/06/21 07:32:42;;;;;;;12.82;7.35;;;27.90;76.70;;;;;;5010117;28;20018;-75
2023/06/21 07:35:08;;;;;;;10.13;6.65;;;28.40;73.80;;;;;;5013359;28;20036;-74
2023/06/21 07:37:33;;;;;;;9.60;6.07;;;28.40;73.60;;;;;;5013757;28;20034;-75
2023/06/21 07:39:59;;;;;;;12.25;7.05;;;28.50;74.00;;;;;;5015051;28;20065;-74
2023/06/21 07:42:25;;;;;;;14.10;9.30;;;28.80;73.50;;;;;;5010778;28;20046;-74
2023/06/21 07:44:52;;;;;;;16.30;9.52;;;28.20;78.20;;;;;;5013192;28;20022;-74
2023/06/21 07:47:18;;;;;;;14.68;9.57;;;27.70;79.60;;;;;;5016683;28;20423;-74
2023/06/21 07:49:43;;;;;;;14.88;8.35;;;27.50;80.80;;;;;;5017628;28;20030;-74
2023/06/21 07:52:10;;;;;;;14.50;8.98;;;27.70;81.20;;;;;;5017585;28;20095;-74
2023/06/21 07:54:36;;;;;;;22.05;10.90;;;28.20;80.10;;;;;;5015499;28;20698;-73
2023/06/21 07:57:02;;;;;;;15.48;10.27;;;28.40;79.40;;;;;;5017279;28;20109;-74
2023/06/21 07:59:28;;;;;;;22.80;10.38;;;28.50;78.80;;;;;;5016543;28;20026;-74
2023/06/21 08:01:53;;;;;;;19.02;10.43;;;27.80;79.70;;;;;;5016691;28;20038;-74
2023/06/21 08:04:19;;;;;;;16.20;10.15;;;26.90;82.20;;;;;;5017836;28;20034;-74
2023/06/21 08:06:44;;;;;;;16.95;10.82;;;26.10;84.50;;;;;;5016112;28;20034;-74
2023/06/21 08:09:10;;;;;;;16.98;11.77;;;25.10;86.70;;;;;;4999385;28;20032;-74
2023/06/21 08:11:35;;;;;;;21.88;12.55;;;24.40;88.50;;;;;;5018414;28;20112;-74
2023/06/21 08:14:01;;;;;;;19.05;13.65;;;23.90;90.20;;;;;;5012791;28;20057;-74
2023/06/21 08:16:26;;;;;;;20.17;13.45;;;23.40;91.20;;;;;;5013953;28;20080;-74
2023/06/21 08:18:52;;;;;;;22.02;13.75;;;23.00;92.00;;;;;;5017631;28;20026;-73
2023/06/21 08:21:18;;;;;;;18.77;12.60;;;22.60;93.10;;;;;;5018587;28;20062;-73
2023/06/21 08:23:43;;;;;;;20.60;13.52;;;22.40;94.10;;;;;;5015247;28;20026;-73
2023/06/21 08:26:09;;;;;;;21.00;13.55;;;22.20;94.50;;;;;;5015133;28;20105;-73
2023/06/21 08:28:34;;;;;;;22.20;13.68;;;21.80;94.80;;;;;;5015796;28;20026;-73
2023/06/21 08:31:00;;;;;;;20.75;13.82;;;21.70;95.10;;;;;;5016583;28;20037;-73
2023/06/21 08:33:25;;;;;;;25.45;15.65;;;21.40;94.60;;;;;;5017855;28;20041;-74
2023/06/21 08:35:51;;;;;;;49.28;15.32;;;20.80;93.50;;;;;;4999384;28;20036;-78
2023/06/21 08:38:16;;;;;;;33.35;8.65;;;19.80;93.10;;;;;;5011990;28;20029;-75
2023/06/21 08:40:45;;;;;;;20.63;6.05;;;18.10;87.40;;;;;;5009580;28;20037;-80
2023/06/21 08:43:11;;;;;;;23.95;6.10;;;17.40;86.30;;;;;;4997950;28;20072;-78
2023/06/21 08:45:37;;;;;;;17.83;6.68;;;17.10;84.10;;;;;;5017638;28;20393;-77
2023/06/21 08:48:05;;;;;;;20.92;8.23;;;16.90;78.00;;;;;;5016769;28;20040;-76
2023/06/21 08:50:36;;;;;;;20.95;5.60;;;16.80;75.40;;;;;;5018189;28;20033;-76
2023/06/21 08:53:08;;;;;;;14.30;4.70;;;16.80;80.90;;;;;;5012366;28;20030;-75
2023/06/21 08:55:36;;;;;;;13.65;5.43;;;16.60;80.20;;;;;;5016962;28;20022;-77
2023/06/21 08:58:09;;;;;;;12.80;5.20;;;16.50;76.60;;;;;;4999264;28;20546;-76
2023/06/21 09:00:43;;;;;;;18.42;6.03;;;16.50;74.70;;;;;;5016238;28;20333;-76
2023/06/21 09:03:10;;;;;;;14.18;5.40;;;16.40;73.40;;;;;;5016075;28;20057;-75
2023/06/21 09:05:44;;;;;;;17.80;5.13;;;16.50;70.60;;;;;;5016423;28;20030;-75
2023/06/21 09:08:14;;;;;;;15.80;6.45;;;16.50;68.50;;;;;;5004056;28;20054;-75
2023/06/21 09:10:41;;;;;;;14.95;6.55;;;16.60;65.60;;;;;;5015210;28;20037;-76
2023/06/21 09:13:08;;;;;;;17.45;5.70;;;16.60;66.00;;;;;;5016055;28;20022;-75
2023/06/21 09:15:34;;;;;;;19.60;6.35;;;16.60;64.60;;;;;;5016057;28;20033;-74
2023/06/21 09:18:03;;;;;;;17.25;5.38;;;16.70;64.50;;;;;;4998388;28;20030;-74
2023/06/21 09:20:29;;;;;;;16.08;5.43;;;16.60;64.30;;;;;;4989823;28;20121;-74
2023/06/21 09:22:59;;;;;;;14.25;5.40;;;16.60;64.60;;;;;;5013995;28;20034;-74
2023/06/21 09:25:27;;;;;;;18.23;5.78;;;16.50;64.50;;;;;;5009571;28;20040;-74
2023/06/21 09:27:53;;;;;;;19.20;5.80;;;16.50;64.50;;;;;;4992188;28;20116;-74
2023/06/21 09:30:20;;;;;;;17.55;5.47;;;16.50;64.20;;;;;;5008812;28;20022;-74
2023/06/21 09:32:48;;;;;;;16.00;5.32;;;16.50;65.10;;;;;;5017422;28;20285;-74
2023/06/21 09:35:13;;;;;;;21.10;6.65;;;16.40;64.40;;;;;;5001316;28;20323;-74
2023/06/21 09:37:40;;;;;;;14.25;5.40;;;16.40;64.10;;;;;;5015990;28;20022;-74
2023/06/21 09:40:06;;;;;;;14.25;6.00;;;16.50;63.60;;;;;;5015910;28;20375;-73
2023/06/21 09:42:42;;;;;;;19.67;5.53;;;16.50;63.10;;;;;;5015746;28;20065;-72
2023/06/21 09:45:09;;;;;;;18.80;6.00;;;16.60;62.90;;;;;;5016322;28;20041;-73
2023/06/21 09:47:34;;;;;;;15.15;6.03;;;16.50;62.70;;;;;;5015475;28;20042;-72
2023/06/21 09:50:07;;;;;;;18.92;6.00;;;16.50;62.60;;;;;;5015806;28;20061;-73
2023/06/21 09:52:34;;;;;;;15.98;6.07;;;16.60;62.00;;;;;;5013378;28;20573;-74
2023/06/21 09:55:02;;;;;;;17.90;7.55;;;16.70;62.20;;;;;;5013173;28;20026;-73
2023/06/21 09:57:29;;;;;;;15.85;6.60;;;16.70;62.10;;;;;;5016332;28;20038;-73
2023/06/21 09:59:55;;;;;;;17.38;7.22;;;16.70;61.70;;;;;;4998423;28;20028;-73
2023/06/21 10:02:21;;;;;;;16.60;7.50;;;16.80;61.30;;;;;;5012667;28;20022;-73
2023/06/21 10:04:47;;;;;;;15.95;7.82;;;16.90;62.00;;;;;;5013074;28;20034;-73
2023/06/21 10:07:14;;;;;;;22.08;7.97;;;16.90;62.90;;;;;;5014442;28;20045;-73
2023/06/21 10:09:40;;;;;;;18.33;6.03;;;16.90;63.20;;;;;;5013087;28;20419;-73
2023/06/21 10:12:09;;;;;;;13.80;5.50;;;17.00;64.50;;;;;;5014078;28;20030;-73
2023/06/21 10:14:34;;;;;;;20.45;5.88;;;17.10;65.60;;;;;;5015143;28;20026;-73
2023/06/21 10:17:03;;;;;;;19.10;6.45;;;17.10;67.50;;;;;;5015196;28;20117;-73
2023/06/21 10:19:29;;;;;;;17.95;5.55;;;17.20;68.60;;;;;;5016530;28;20084;-73
2023/06/21 10:22:04;;;;;;;19.08;5.43;;;17.30;71.60;;;;;;5014156;28;20030;-73
2023/06/21 10:24:37;;;;;;;15.00;5.03;;;17.50;72.60;;;;;;5012248;28;20398;-74
2023/06/21 10:27:05;;;;;;;17.30;5.65;;;17.50;77.10;;;;;;5012408;28;20117;-72
2023/06/21 10:29:32;;;;;;;15.23;4.80;;;17.70;81.30;;;;;;5011344;28;20104;-72
2023/06/21 10:32:00;;;;;;;16.20;4.68;;;17.90;81.40;;;;;;4996966;28;20026;-75
2023/06/21 10:34:27;;;;;;;13.65;4.72;;;18.30;82.00;;;;;;5013215;28;20051;-74
2023/06/21 10:37:06;;;;;;;16.45;4.20;;;18.80;85.60;;;;;;5014475;28;20029;-73
2023/06/21 10:39:36;;;;;;;13.85;4.93;;;19.10;89.00;;;;;;5014833;28;20462;-73
2023/06/21 10:42:03;;;;;;;20.40;5.93;;;19.60;94.00;;;;;;5013832;28;20042;-73
2023/06/21 10:44:29;;;;;;;11.50;4.20;;;20.20;94.90;;;;;;5012271;28;20025;-74
2023/06/21 10:46:57;;;;;;;14.50;4.43;;;21.00;96.20;;;;;;5014311;28;20026;-73
2023/06/21 10:49:24;;;;;;;17.00;4.78;;;21.80;96.70;;;;;;5011652;28;20026;-74
2023/06/21 10:51:51;;;;;;;14.93;4.68;;;22.50;97.20;;;;;;5013354;28;20493;-73
2023/06/21 10:54:18;;;;;;;14.48;4.40;;;23.50;95.60;;;;;;5013309;28;20033;-74
2023/06/21 10:56:43;;;;;;;15.02;4.38;;;24.20;92.50;;;;;;5012219;28;20055;-74
2023/06/21 10:59:10;;;;;;;13.48;4.70;;;24.60;90.90;;;;;;5014716;28;20112;-73
2023/06/21 11:01:36;;;;;;;16.40;4.13;;;24.90;90.80;;;;;;5011507;28;20448;-73
2023/06/21 11:04:03;;;;;;;11.70;4.28;;;25.30;89.40;;;;;;5011579;28;20045;-74
2023/06/21 11:06:33;;;;;;;13.30;4.45;;;25.70;88.40;;;;;;5011589;28;20029;-74
2023/06/21 11:09:10;;;;;;;13.57;4.72;;;25.80;88.00;;;;;;5012111;28;20318;-73
2023/06/21 11:11:37;;;;;;;9.88;4.18;;;26.40;86.50;;;;;;5011397;28;20021;-74
2023/06/21 11:14:06;;;;;;;12.77;4.63;;;26.80;85.00;;;;;;5008678;28;20026;-74
2023/06/21 11:16:34;;;;;;;10.32;4.15;;;27.20;87.20;;;;;;5015357;28;20285;-73
2023/06/21 11:19:10;;;;;;;14.40;4.60;;;27.50;83.30;;;;;;4998735;28;20026;-74
2023/06/21 11:21:41;;;;;;;12.95;4.32;;;27.80;82.80;;;;;;5015636;28;20029;-74
2023/06/21 11:24:17;;;;;;;9.63;3.40;;;28.10;81.40;;;;;;5013464;28;20037;-74
2023/06/21 11:26:53;;;;;;;11.05;3.42;;;28.50;77.90;;;;;;4998417;28;20449;-74
2023/06/21 11:29:20;;;;;;;11.15;4.35;;;28.10;76.00;;;;;;5015868;28;20036;-73
2023/06/21 11:31:46;;;;;;;8.07;3.88;;;27.30;80.60;;;;;;5015851;28;20171;-74
2023/06/21 11:34:26;;;;;;;10.15;4.78;;;27.10;80.50;;;;;;5015940;28;20149;-73
2023/06/21 11:36:52;;;;;;;11.98;4.10;;;26.90;81.50;;;;;;5018312;28;20165;-73
2023/06/21 11:39:17;;;;;;;8.88;3.70;;;27.50;80.30;;;;;;5018906;28;20068;-74
2023/06/21 11:41:43;;;;;;;7.20;3.42;;;27.50;80.60;;;;;;5019393;28;20088;-73
2023/06/21 11:44:11;;;;;;;10.40;3.85;;;28.10;78.80;;;;;;5019462;28;20034;-74
2023/06/21 11:46:39;;;;;;;7.72;3.80;;;28.40;77.60;;;;;;5019525;28;20030;-74
2023/06/21 11:49:05;;;;;;;6.05;3.33;;;28.30;77.70;;;;;;5019238;28;20319;-74
2023/06/21 11:51:35;;;;;;;7.30;3.17;;;28.10;75.40;;;;;;5018185;28;20033;-73
2023/06/21 11:54:00;;;;;;;7.53;3.13;;;28.00;76.20;;;;;;4999756;28;20034;-73
2023/06/21 11:56:32;;;;;;;7.50;3.60;;;27.60;75.60;;;;;;5007576;28;20026;-73
2023/06/21 11:58:59;;;;;;;6.93;3.28;;;27.90;78.10;;;;;;5001925;28;20029;-73
2023/06/21 12:01:25;;;;;;;8.25;2.95;;;27.30;77.60;;;;;;5019090;28;20034;-73
2023/06/21 12:03:58;;;;;;;7.60;3.60;;;27.50;77.60;;;;;;5001582;28;20029;-73
2023/06/21 12:06:24;;;;;;;6.45;3.20;;;27.80;77.60;;;;;;5017365;28;20033;-73
2023/06/21 12:08:54;;;;;;;7.82;3.40;;;27.90;77.20;;;;;;5003092;28;20022;-73
2023/06/21 12:11:20;;;;;;;6.53;3.33;;;28.00;77.80;;;;;;4999185;28;20034;-73
2023/06/21 12:13:47;;;;;;;8.05;3.47;;;28.20;75.00;;;;;;5017551;28;20026;-73
2023/06/21 12:16:13;;;;;;;8.20;3.50;;;28.50;75.20;;;;;;5018689;28;20022;-73
2023/06/21 12:18:38;;;;;;;6.97;3.38;;;27.80;75.50;;;;;;5017237;28;20040;-73
2023/06/21 12:21:05;;;;;;;7.75;3.28;;;28.20;78.50;;;;;;5016818;28;20093;-73
2023/06/21 12:23:31;;;;;;;7.72;3.45;;;28.60;73.70;;;;;;5017677;28;20072;-73
2023/06/21 12:26:00;;;;;;;8.10;3.40;;;29.00;75.10;;;;;;5018562;28;20113;-73
2023/06/21 12:28:26;;;;;;;6.72;3.42;;;28.90;73.00;;;;;;5018079;28;20119;-73
2023/06/21 12:30:56;;;;;;;6.82;3.75;;;28.60;73.30;;;;;;5017638;28;20034;-73
2023/06/21 12:33:32;;;;;;;9.10;3.72;;;28.30;72.90;;;;;;5018045;28;20022;-72